Time;durP1;ratioP1;P1;durP2;ratioP2;P2;SDS_P1;SDS_P2;PMS_P1;PMS_P2;Temp;Humidity;BMP_temperature;BMP_pressure;BME280_temperature;BME280_humidity;BME280_pressure;Samples;Min_cycle;Max_cycle;Signal;HPM_P1;HPM_P2
2021/10/13 00:01:31;;;;;;;8.05;3.97;;;;;;;;;;4866545;29;20119;-77
2021/10/13 00:03:58;;;;;;;8.60;3.55;;;;;;;;;;4863762;29;20579;-78
2021/10/13 00:06:28;;;;;;;8.63;3.90;;;;;;;;;;4861277;29;20032;-77
2021/10/13 00:08:57;;;;;;;8.95;3.83;;;;;;;;;;4865456;29;20555;-77
2021/10/13 00:11:29;;;;;;;8.25;4.00;;;;;;;;;;4865475;29;20542;-77
2021/10/13 00:13:56;;;;;;;10.45;4.00;;;;;;;;;;4871772;29;20040;-77
2021/10/13 00:16:24;;;;;;;8.35;3.95;;;;;;;;;;4871043;29;20100;-77
2021/10/13 00:18:50;;;;;;;8.65;3.97;;;;;;;;;;4868379;29;20551;-77
2021/10/13 00:21:20;;;;;;;10.52;3.88;;;;;;;;;;4862379;29;20041;-77
2021/10/13 00:23:47;;;;;;;7.47;3.53;;;;;;;;;;4871661;29;20492;-77
2021/10/13 00:26:16;;;;;;;8.88;3.80;;;;;;;;;;4865676;29;20140;-77
2021/10/13 00:28:43;;;;;;;7.78;3.80;;;;;;;;;;4879827;29;20037;-77
2021/10/13 00:31:11;;;;;;;8.10;3.70;;;;;;;;;;4865756;29;20037;-77
2021/10/13 00:33:37;;;;;;;8.05;3.40;;;;;;;;;;4869280;29;20111;-77
2021/10/13 00:36:06;;;;;;;7.82;3.50;;;;;;;;;;4867579;29;20047;-77
2021/10/13 00:38:33;;;;;;;7.55;3.45;;;;;;;;;;4869628;29;20035;-77
2021/10/13 00:41:02;;;;;;;9.90;4.35;;;;;;;;;;4871761;29;20037;-77
2021/10/13 00:43:29;;;;;;;7.00;3.53;;;;;;;;;;4860110;29;20127;-78
2021/10/13 00:45:58;;;;;;;8.90;3.53;;;;;;;;;;4860818;29;20040;-77
2021/10/13 00:48:27;;;;;;;9.95;3.90;;;;;;;;;;4863794;29;20032;-77
2021/10/13 00:50:55;;;;;;;8.85;4.00;;;;;;;;;;4882168;29;20115;-78
2021/10/13 00:53:24;;;;;;;8.85;4.13;;;;;;;;;;4878303;29;20116;-77
2021/10/13 00:55:56;;;;;;;7.75;3.63;;;;;;;;;;4860965;29;20063;-77
2021/10/13 00:58:27;;;;;;;9.60;4.45;;;;;;;;;;4866154;29;20174;-78
2021/10/13 01:01:03;;;;;;;8.20;4.03;;;;;;;;;;4866363;29;20033;-77
2021/10/13 01:03:54;;;;;;;9.18;3.88;;;;;;;;;;4835988;29;20532;-77
2021/10/13 01:06:39;;;;;;;7.55;3.70;;;;;;;;;;4833636;29;20043;-78
2021/10/13 01:09:13;;;;;;;8.60;4.10;;;;;;;;;;4839742;29;20056;-77
2021/10/13 01:11:55;;;;;;;8.55;3.47;;;;;;;;;;4844374;29;20044;-77
2021/10/13 01:14:41;;;;;;;7.45;3.67;;;;;;;;;;4837344;29;20863;-77
2021/10/13 01:17:26;;;;;;;8.85;3.97;;;;;;;;;;4815092;29;20044;-78
2021/10/13 01:19:58;;;;;;;8.75;3.95;;;;;;;;;;4831284;29;20569;-79
2021/10/13 01:22:44;;;;;;;9.90;4.13;;;;;;;;;;4845704;29;20132;-78
2021/10/13 01:25:29;;;;;;;9.65;4.13;;;;;;;;;;4842642;29;20041;-77
2021/10/13 01:28:01;;;;;;;9.65;4.55;;;;;;;;;;4840312;29;20037;-78
2021/10/13 01:30:48;;;;;;;8.38;3.85;;;;;;;;;;4844946;29;20048;-78
2021/10/13 01:33:29;;;;;;;9.03;4.23;;;;;;;;;;4840567;29;20041;-78
2021/10/13 01:36:01;;;;;;;10.25;3.75;;;;;;;;;;4851096;29;20485;-77
2021/10/13 01:38:31;;;;;;;8.50;4.03;;;;;;;;;;4827337;29;20140;-78
2021/10/13 01:41:02;;;;;;;9.60;4.22;;;;;;;;;;4850387;29;20093;-78
2021/10/13 01:43:35;;;;;;;9.55;4.20;;;;;;;;;;4864590;29;20056;-78
2021/10/13 01:46:03;;;;;;;7.45;3.80;;;;;;;;;;4841482;29;20038;-77
2021/10/13 01:48:33;;;;;;;10.30;3.85;;;;;;;;;;4872227;29;20035;-77
2021/10/13 01:51:02;;;;;;;7.40;3.38;;;;;;;;;;4897297;29;20044;-77
2021/10/13 01:53:30;;;;;;;8.02;3.70;;;;;;;;;;4882531;29;20044;-78
2021/10/13 01:56:01;;;;;;;8.07;4.10;;;;;;;;;;4865456;29;20044;-77
2021/10/13 01:58:31;;;;;;;8.00;4.13;;;;;;;;;;4883151;29;20079;-77
2021/10/13 02:01:00;;;;;;;11.40;4.88;;;;;;;;;;4868236;29;20089;-77
2021/10/13 02:03:30;;;;;;;9.15;4.63;;;;;;;;;;4864316;29;20067;-77
2021/10/13 02:06:00;;;;;;;10.98;5.03;;;;;;;;;;4867774;29;20948;-77
2021/10/13 02:08:28;;;;;;;12.30;4.97;;;;;;;;;;4860214;29;20425;-76
2021/10/13 02:11:07;;;;;;;9.80;5.38;;;;;;;;;;4867238;29;20103;-78
2021/10/13 02:13:37;;;;;;;11.30;4.75;;;;;;;;;;4866135;29;20377;-78
2021/10/13 02:16:05;;;;;;;12.20;5.20;;;;;;;;;;4875994;29;20650;-78
2021/10/13 02:18:34;;;;;;;9.23;4.10;;;;;;;;;;4866329;29;20065;-78
2021/10/13 02:21:04;;;;;;;11.07;4.80;;;;;;;;;;4882773;29;20131;-79
2021/10/13 02:23:36;;;;;;;9.43;5.43;;;;;;;;;;4867284;29;20028;-78
2021/10/13 02:26:08;;;;;;;8.43;4.28;;;;;;;;;;4862252;29;20044;-79
2021/10/13 02:28:40;;;;;;;11.80;5.70;;;;;;;;;;4869992;29;20103;-77
2021/10/13 02:31:09;;;;;;;10.98;5.07;;;;;;;;;;4878780;29;20120;-77
2021/10/13 02:33:38;;;;;;;10.88;4.88;;;;;;;;;;4864742;29;20163;-77
2021/10/13 02:36:06;;;;;;;10.30;4.95;;;;;;;;;;4874383;29;20040;-79
2021/10/13 02:38:33;;;;;;;10.40;4.82;;;;;;;;;;4868862;29;20433;-78
2021/10/13 02:41:01;;;;;;;8.88;4.40;;;;;;;;;;4883041;29;20037;-79
2021/10/13 02:43:28;;;;;;;9.18;4.35;;;;;;;;;;4867649;29;20616;-78
2021/10/13 02:46:16;;;;;;;12.45;5.25;;;;;;;;;;4878282;29;20124;-79
2021/10/13 02:48:46;;;;;;;10.80;5.60;;;;;;;;;;4866485;29;20029;-79
2021/10/13 02:51:19;;;;;;;10.55;5.75;;;;;;;;;;4876727;29;20071;-79
2021/10/13 02:53:58;;;;;;;9.90;4.85;;;;;;;;;;4882036;29;20036;-79
2021/10/13 02:56:27;;;;;;;16.10;7.78;;;;;;;;;;4859428;29;20123;-79
2021/10/13 02:59:07;;;;;;;15.15;6.90;;;;;;;;;;4865725;29;20044;-77
2021/10/13 03:01:41;;;;;;;31.58;17.15;;;;;;;;;;4865053;29;20147;-80
2021/10/13 03:04:17;;;;;;;30.33;16.25;;;;;;;;;;4873903;29;20097;-79
2021/10/13 03:07:07;;;;;;;26.90;14.85;;;;;;;;;;4868348;29;20058;-78
2021/10/13 03:09:36;;;;;;;28.98;15.07;;;;;;;;;;4878211;29;20047;-78
2021/10/13 03:12:04;;;;;;;32.25;16.75;;;;;;;;;;4873772;29;20039;-76
2021/10/13 03:14:34;;;;;;;29.92;15.18;;;;;;;;;;4876888;29;20035;-76
2021/10/13 03:17:02;;;;;;;39.95;21.75;;;;;;;;;;4864170;29;20045;-76
2021/10/13 03:19:29;;;;;;;50.22;25.25;;;;;;;;;;4882831;29;20508;-76
2021/10/13 03:21:57;;;;;;;54.47;26.27;;;;;;;;;;4861873;29;20037;-77
2021/10/13 03:24:24;;;;;;;49.90;23.30;;;;;;;;;;4865204;29;20966;-77
2021/10/13 03:26:51;;;;;;;51.13;23.50;;;;;;;;;;4860444;29;20096;-77
2021/10/13 03:29:18;;;;;;;45.72;22.80;;;;;;;;;;4878779;29;20047;-76
2021/10/13 03:31:46;;;;;;;39.30;18.13;;;;;;;;;;4864775;29;20519;-77
2021/10/13 03:34:17;;;;;;;34.22;16.38;;;;;;;;;;4874955;29;21036;-77
2021/10/13 03:36:47;;;;;;;26.15;11.75;;;;;;;;;;4869537;29;20032;-77
2021/10/13 03:39:14;;;;;;;16.60;8.32;;;;;;;;;;4874477;29;20060;-77
2021/10/13 03:41:41;;;;;;;15.65;6.43;;;;;;;;;;4869771;29;20197;-77
2021/10/13 03:44:09;;;;;;;11.07;5.13;;;;;;;;;;4877208;29;20526;-77
2021/10/13 03:46:37;;;;;;;10.20;3.80;;;;;;;;;;4852070;29;20346;-77
2021/10/13 03:49:06;;;;;;;9.23;4.13;;;;;;;;;;4846453;29;20041;-77
2021/10/13 03:51:34;;;;;;;8.20;4.00;;;;;;;;;;4841612;29;20040;-77
2021/10/13 03:54:03;;;;;;;10.07;4.15;;;;;;;;;;4862369;29;20033;-77
2021/10/13 03:56:35;;;;;;;13.13;4.38;;;;;;;;;;4849936;29;20033;-78
2021/10/13 03:59:03;;;;;;;10.80;3.95;;;;;;;;;;4861172;29;20045;-78
2021/10/13 04:01:29;;;;;;;12.70;4.97;;;;;;;;;;4851532;29;20041;-79
2021/10/13 04:03:56;;;;;;;12.60;4.68;;;;;;;;;;4862769;29;20045;-77
2021/10/13 04:06:23;;;;;;;10.55;3.53;;;;;;;;;;4849383;29;20119;-77
2021/10/13 04:08:50;;;;;;;8.13;3.15;;;;;;;;;;4859066;29;20097;-76
2021/10/13 04:11:18;;;;;;;12.13;4.65;;;;;;;;;;4847450;29;20047;-79
2021/10/13 04:13:46;;;;;;;10.00;3.53;;;;;;;;;;4856624;29;20100;-77
2021/10/13 04:16:15;;;;;;;9.85;3.03;;;;;;;;;;4849780;29;20044;-76
2021/10/13 04:18:42;;;;;;;8.75;2.90;;;;;;;;;;4871174;29;20069;-77
2021/10/13 04:21:11;;;;;;;14.55;5.30;;;;;;;;;;4867091;29;20033;-76
2021/10/13 04:23:38;;;;;;;10.95;3.75;;;;;;;;;;4876480;28;20048;-76
2021/10/13 04:26:07;;;;;;;11.85;3.90;;;;;;;;;;4874085;29;20068;-77
2021/10/13 04:28:34;;;;;;;10.13;3.85;;;;;;;;;;4879202;29;20041;-79
2021/10/13 04:31:04;;;;;;;11.07;3.53;;;;;;;;;;4852964;29;20040;-77
2021/10/13 04:33:31;;;;;;;10.90;3.05;;;;;;;;;;4846181;29;20078;-78
2021/10/13 04:36:01;;;;;;;8.77;2.80;;;;;;;;;;4858943;29;20124;-77
2021/10/13 04:38:28;;;;;;;10.45;3.88;;;;;;;;;;4863175;29;20131;-79
2021/10/13 04:40:55;;;;;;;8.95;3.38;;;;;;;;;;4873286;29;20043;-78
2021/10/13 04:43:25;;;;;;;8.15;2.90;;;;;;;;;;4876833;29;20051;-78
2021/10/13 04:45:54;;;;;;;11.18;3.72;;;;;;;;;;4881636;29;20030;-78
2021/10/13 04:48:22;;;;;;;9.18;3.05;;;;;;;;;;4853833;29;22232;-78
2021/10/13 04:50:53;;;;;;;10.02;4.18;;;;;;;;;;4863216;29;20047;-78
2021/10/13 04:53:21;;;;;;;11.80;3.40;;;;;;;;;;4838399;29;20082;-77
2021/10/13 04:55:49;;;;;;;13.88;4.88;;;;;;;;;;4859230;29;20095;-77
2021/10/13 04:58:19;;;;;;;13.05;4.28;;;;;;;;;;4859494;29;20048;-78
2021/10/13 05:00:49;;;;;;;9.00;3.22;;;;;;;;;;4864890;29;20669;-78
2021/10/13 05:03:19;;;;;;;8.90;2.85;;;;;;;;;;4860022;29;20033;-78
2021/10/13 05:05:48;;;;;;;11.00;3.10;;;;;;;;;;4864772;29;20132;-77
2021/10/13 05:08:16;;;;;;;10.90;3.40;;;;;;;;;;4861886;29;20108;-78
2021/10/13 05:10:46;;;;;;;10.00;3.42;;;;;;;;;;4866370;29;20071;-77
2021/10/13 05:13:14;;;;;;;11.38;3.25;;;;;;;;;;4855358;29;20037;-80
2021/10/13 05:15:44;;;;;;;11.98;3.88;;;;;;;;;;4850378;29;20044;-80
2021/10/13 05:18:14;;;;;;;12.43;3.78;;;;;;;;;;4860193;29;20052;-80
2021/10/13 05:20:44;;;;;;;12.25;3.55;;;;;;;;;;4856673;29;20941;-80
2021/10/13 05:23:11;;;;;;;12.57;4.03;;;;;;;;;;4851983;29;20037;-81
2021/10/13 05:25:40;;;;;;;10.05;3.88;;;;;;;;;;4858687;29;20176;-80
2021/10/13 05:28:14;;;;;;;14.25;4.25;;;;;;;;;;4869668;29;20047;-80
2021/10/13 05:30:41;;;;;;;12.40;4.70;;;;;;;;;;4885564;28;20048;-80
2021/10/13 05:33:11;;;;;;;13.55;5.03;;;;;;;;;;4869166;29;20032;-80
2021/10/13 05:35:38;;;;;;;14.50;4.18;;;;;;;;;;4870081;29;20036;-81
2021/10/13 05:38:07;;;;;;;10.52;3.97;;;;;;;;;;4866149;29;20044;-80
2021/10/13 05:40:36;;;;;;;13.18;4.82;;;;;;;;;;4870292;29;20602;-80
2021/10/13 05:43:04;;;;;;;13.68;4.55;;;;;;;;;;4880461;29;20095;-80
2021/10/13 05:45:33;;;;;;;15.15;4.60;;;;;;;;;;4894363;29;20102;-81
2021/10/13 05:48:02;;;;;;;16.00;4.20;;;;;;;;;;4885792;29;20424;-80
2021/10/13 05:50:30;;;;;;;12.98;4.07;;;;;;;;;;4890738;29;20464;-80
2021/10/13 05:52:59;;;;;;;16.00;4.15;;;;;;;;;;4870722;29;20047;-81
2021/10/13 05:55:27;;;;;;;11.27;3.70;;;;;;;;;;4886727;28;20040;-82
2021/10/13 05:57:55;;;;;;;12.73;3.38;;;;;;;;;;4887030;29;20088;-81
2021/10/13 06:00:27;;;;;;;11.93;3.20;;;;;;;;;;4868318;29;20039;-81
2021/10/13 06:03:02;;;;;;;13.20;3.38;;;;;;;;;;4890317;29;20044;-82
2021/10/13 06:05:32;;;;;;;14.10;3.10;;;;;;;;;;4887381;29;20036;-82
2021/10/13 06:07:59;;;;;;;14.18;3.63;;;;;;;;;;4872197;29;20067;-82
2021/10/13 06:10:29;;;;;;;13.90;3.80;;;;;;;;;;4866296;29;20044;-82
2021/10/13 06:12:57;;;;;;;11.57;3.78;;;;;;;;;;4875931;29;21814;-82
2021/10/13 06:15:29;;;;;;;14.07;3.33;;;;;;;;;;4884297;29;20835;-81
2021/10/13 06:17:56;;;;;;;18.67;3.97;;;;;;;;;;4887668;29;20031;-81
2021/10/13 06:20:23;;;;;;;16.42;3.75;;;;;;;;;;4887181;29;20047;-81
2021/10/13 06:22:53;;;;;;;10.88;3.60;;;;;;;;;;4885782;29;20052;-81
2021/10/13 06:25:20;;;;;;;16.17;3.97;;;;;;;;;;4885550;29;20147;-81
2021/10/13 06:27:48;;;;;;;14.80;3.95;;;;;;;;;;4889524;29;20075;-80
2021/10/13 06:30:21;;;;;;;14.77;4.35;;;;;;;;;;4869927;29;20048;-84
2021/10/13 06:32:47;;;;;;;12.55;3.92;;;;;;;;;;4856715;29;20040;-81
2021/10/13 06:35:15;;;;;;;16.45;4.05;;;;;;;;;;4874467;29;20054;-80
2021/10/13 06:37:43;;;;;;;14.48;4.00;;;;;;;;;;4874457;29;20040;-82
2021/10/13 06:40:10;;;;;;;14.07;3.97;;;;;;;;;;4865920;29;20032;-82
2021/10/13 06:42:41;;;;;;;22.08;4.22;;;;;;;;;;4869791;29;20624;-82
2021/10/13 06:45:09;;;;;;;16.83;3.88;;;;;;;;;;4873316;29;21563;-81
2021/10/13 06:47:38;;;;;;;15.88;4.10;;;;;;;;;;4861065;29;20662;-82
2021/10/13 06:50:08;;;;;;;20.25;4.45;;;;;;;;;;4881557;29;20140;-81
2021/10/13 06:52:37;;;;;;;20.10;4.82;;;;;;;;;;4870518;29;20040;-81
2021/10/13 06:55:11;;;;;;;17.25;3.63;;;;;;;;;;4880444;29;20157;-80
2021/10/13 06:57:40;;;;;;;18.88;4.03;;;;;;;;;;4887050;29;20051;-81
2021/10/13 07:00:09;;;;;;;17.27;4.35;;;;;;;;;;4885290;28;20071;-80
2021/10/13 07:02:37;;;;;;;20.35;4.45;;;;;;;;;;4869767;29;20032;-82
2021/10/13 07:05:05;;;;;;;18.85;4.60;;;;;;;;;;4884811;28;20677;-82
2021/10/13 07:07:33;;;;;;;25.33;4.70;;;;;;;;;;4885316;29;20036;-80
2021/10/13 07:10:01;;;;;;;31.30;5.18;;;;;;;;;;4886964;29;20128;-80
2021/10/13 07:12:32;;;;;;;24.65;5.15;;;;;;;;;;4888762;29;20097;-80
2021/10/13 07:15:00;;;;;;;17.33;4.18;;;;;;;;;;4887016;29;20618;-81
2021/10/13 07:17:29;;;;;;;17.27;4.20;;;;;;;;;;4887055;29;20472;-81
2021/10/13 07:19:59;;;;;;;15.55;4.00;;;;;;;;;;4871006;29;20051;-80
2021/10/13 07:22:27;;;;;;;23.13;5.07;;;;;;;;;;4880029;29;20590;-80
2021/10/13 07:24:56;;;;;;;22.88;4.88;;;;;;;;;;4872802;29;20075;-80
2021/10/13 07:27:22;;;;;;;23.30;5.18;;;;;;;;;;4862985;29;20167;-82
2021/10/13 07:30:01;;;;;;;16.60;4.15;;;;;;;;;;4887457;29;20095;-81
2021/10/13 07:32:35;;;;;;;17.67;3.95;;;;;;;;;;4882613;29;20059;-81
2021/10/13 07:35:03;;;;;;;18.23;4.50;;;;;;;;;;4871026;29;20063;-81
2021/10/13 07:37:36;;;;;;;17.52;4.68;;;;;;;;;;4851419;29;21064;-80
2021/10/13 07:40:08;;;;;;;17.10;4.10;;;;;;;;;;4847006;29;20041;-81
2021/10/13 07:42:37;;;;;;;15.35;3.97;;;;;;;;;;4836088;29;20073;-80
2021/10/13 07:47:59;;;;;;;23.30;6.22;;;;;;;;;;4845235;29;20200;-81
2021/10/13 07:50:28;;;;;;;16.15;4.75;;;;;;;;;;4843662;29;20041;-82
2021/10/13 07:52:57;;;;;;;15.68;4.90;;;;;;;;;;4809269;29;20042;-81
2021/10/13 07:55:23;;;;;;;22.02;6.45;;;;;;;;;;4795509;29;20074;-81
2021/10/13 07:57:56;;;;;;;19.77;7.85;;;;;;;;;;4793120;29;20069;-83
2021/10/13 08:00:22;;;;;;;23.88;10.57;;;;;;;;;;4779249;29;20048;-83
2021/10/13 08:02:52;;;;;;;28.75;12.48;;;;;;;;;;4817024;29;20077;-82
2021/10/13 08:05:20;;;;;;;31.05;13.52;;;;;;;;;;4822569;29;20586;-82
2021/10/13 08:07:47;;;;;;;30.70;15.15;;;;;;;;;;4828330;29;20053;-79
2021/10/13 08:10:16;;;;;;;25.20;10.07;;;;;;;;;;4797147;29;20871;-82
2021/10/13 08:12:45;;;;;;;19.40;8.80;;;;;;;;;;4814190;29;20105;-81
2021/10/13 08:15:16;;;;;;;20.30;6.95;;;;;;;;;;4807039;29;20286;-81
2021/10/13 08:17:44;;;;;;;14.93;5.55;;;;;;;;;;4825731;29;20057;-81
2021/10/13 08:20:13;;;;;;;16.40;5.75;;;;;;;;;;4826203;29;20197;-81
2021/10/13 08:22:46;;;;;;;14.88;6.50;;;;;;;;;;4801668;29;20590;-83
2021/10/13 08:25:20;;;;;;;18.45;6.95;;;;;;;;;;4809014;29;20050;-82
2021/10/13 08:27:48;;;;;;;19.42;6.25;;;;;;;;;;4816010;29;20044;-82
2021/10/13 08:30:17;;;;;;;16.88;5.68;;;;;;;;;;4845671;29;20055;-82
2021/10/13 08:32:44;;;;;;;18.30;6.15;;;;;;;;;;4871265;29;20029;-83
2021/10/13 08:35:12;;;;;;;17.77;6.13;;;;;;;;;;4864258;29;20883;-82
2021/10/13 08:37:40;;;;;;;18.48;6.68;;;;;;;;;;4869363;29;20052;-82
2021/10/13 08:40:11;;;;;;;19.88;8.95;;;;;;;;;;4846905;29;20029;-82
2021/10/13 08:42:52;;;;;;;22.15;10.07;;;;;;;;;;4863202;29;20052;-82
2021/10/13 08:45:22;;;;;;;26.02;11.52;;;;;;;;;;4881193;29;20033;-83
2021/10/13 08:47:51;;;;;;;40.28;10.85;;;;;;;;;;4885574;29;20041;-82
2021/10/13 08:50:22;;;;;;;20.70;10.13;;;;;;;;;;4880513;29;20151;-81
2021/10/13 08:52:50;;;;;;;24.90;11.20;;;;;;;;;;4884658;29;20512;-81
2021/10/13 08:55:17;;;;;;;30.45;11.95;;;;;;;;;;4878262;29;20136;-81
2021/10/13 08:57:48;;;;;;;18.13;8.60;;;;;;;;;;4870828;29;20540;-80
2021/10/13 09:00:22;;;;;;;16.90;6.43;;;;;;;;;;4866299;29;20491;-83
2021/10/13 09:02:50;;;;;;;9.85;3.80;;;;;;;;;;4879762;29;20033;-80
2021/10/13 09:05:21;;;;;;;9.85;3.35;;;;;;;;;;4866786;29;20201;-83
2021/10/13 09:07:56;;;;;;;10.05;3.38;;;;;;;;;;4880887;29;20048;-82
2021/10/13 09:10:36;;;;;;;16.20;3.70;;;;;;;;;;4866203;29;20734;-82
2021/10/13 09:13:04;;;;;;;12.15;3.78;;;;;;;;;;4864276;29;20530;-82
2021/10/13 09:15:35;;;;;;;13.10;4.10;;;;;;;;;;4886851;28;20047;-81
2021/10/13 09:18:03;;;;;;;10.48;3.80;;;;;;;;;;4885248;29;20044;-81
2021/10/13 09:20:35;;;;;;;14.13;4.30;;;;;;;;;;4885242;29;20071;-81
2021/10/13 09:23:22;;;;;;;15.07;4.72;;;;;;;;;;4865524;29;20043;-83
2021/10/13 09:26:07;;;;;;;15.68;4.18;;;;;;;;;;4869569;29;20048;-83
2021/10/13 09:28:36;;;;;;;16.63;5.38;;;;;;;;;;4878046;29;20036;-82
2021/10/13 09:31:18;;;;;;;19.92;4.28;;;;;;;;;;4873732;29;20082;-82
2021/10/13 09:33:59;;;;;;;16.88;5.18;;;;;;;;;;4871949;29;20786;-82
2021/10/13 09:36:39;;;;;;;18.30;5.20;;;;;;;;;;4880324;28;20044;-83
2021/10/13 09:39:19;;;;;;;16.90;5.68;;;;;;;;;;4880999;29;20036;-82
2021/10/13 09:42:05;;;;;;;18.80;8.20;;;;;;;;;;4884178;28;20056;-82
2021/10/13 09:44:36;;;;;;;18.23;7.57;;;;;;;;;;4883094;29;20491;-80
2021/10/13 09:47:08;;;;;;;18.98;5.80;;;;;;;;;;4871033;29;20795;-83
2021/10/13 09:49:43;;;;;;;27.63;11.27;;;;;;;;;;4875035;29;20199;-81
2021/10/13 09:52:29;;;;;;;34.83;17.60;;;;;;;;;;4868400;29;20040;-83
2021/10/13 09:55:13;;;;;;;45.45;23.35;;;;;;;;;;4885520;29;20282;-82
2021/10/13 09:57:48;;;;;;;35.13;16.05;;;;;;;;;;4880432;29;20039;-82
2021/10/13 10:00:32;;;;;;;21.88;7.28;;;;;;;;;;4882631;29;20147;-83
2021/10/13 10:03:02;;;;;;;19.05;6.10;;;;;;;;;;4870245;29;20711;-82
2021/10/13 10:05:34;;;;;;;17.63;4.78;;;;;;;;;;4886285;28;20042;-82
2021/10/13 10:08:11;;;;;;;16.85;4.50;;;;;;;;;;4861348;29;20043;-82
2021/10/13 10:10:38;;;;;;;13.83;3.70;;;;;;;;;;4886216;28;20040;-84
2021/10/13 10:13:12;;;;;;;14.15;4.05;;;;;;;;;;4869676;29;20278;-82
2021/10/13 10:15:43;;;;;;;17.30;4.10;;;;;;;;;;4871215;29;20123;-82
2021/10/13 10:18:32;;;;;;;15.75;4.32;;;;;;;;;;4882002;29;20039;-82
2021/10/13 10:21:18;;;;;;;15.93;4.43;;;;;;;;;;4889462;29;20044;-83
2021/10/13 10:23:48;;;;;;;15.93;4.27;;;;;;;;;;4886364;29;20326;-82
2021/10/13 10:26:33;;;;;;;16.60;4.45;;;;;;;;;;4879324;29;20774;-82
2021/10/13 10:29:18;;;;;;;17.70;4.57;;;;;;;;;;4886893;29;20048;-81
2021/10/13 10:31:58;;;;;;;18.80;4.88;;;;;;;;;;4871695;29;20374;-83
2021/10/13 10:34:28;;;;;;;17.67;4.82;;;;;;;;;;4886159;29;20047;-82
2021/10/13 10:36:57;;;;;;;16.55;3.78;;;;;;;;;;4874247;29;20051;-83
2021/10/13 10:39:46;;;;;;;15.90;4.00;;;;;;;;;;4886654;29;20052;-83
2021/10/13 10:42:32;;;;;;;15.27;3.63;;;;;;;;;;4866993;29;20049;-81
2021/10/13 10:45:11;;;;;;;18.42;4.95;;;;;;;;;;4865684;29;20044;-81
2021/10/13 10:47:48;;;;;;;15.52;3.80;;;;;;;;;;4865695;29;20100;-81
2021/10/13 10:50:30;;;;;;;21.52;5.88;;;;;;;;;;4863745;29;20044;-81
2021/10/13 10:53:15;;;;;;;17.75;4.28;;;;;;;;;;4864939;29;20036;-80
2021/10/13 10:55:44;;;;;;;15.43;3.67;;;;;;;;;;4865125;29;20068;-82
2021/10/13 10:58:22;;;;;;;17.10;4.38;;;;;;;;;;4878203;29;20389;-82
2021/10/13 11:01:05;;;;;;;19.15;4.20;;;;;;;;;;4867857;29;20137;-82
2021/10/13 11:03:37;;;;;;;15.85;3.83;;;;;;;;;;4866596;29;20154;-81
2021/10/13 11:06:17;;;;;;;13.80;3.35;;;;;;;;;;4863602;29;20115;-80
2021/10/13 11:08:58;;;;;;;17.42;3.83;;;;;;;;;;4862236;29;20119;-81
2021/10/13 11:11:29;;;;;;;18.75;3.67;;;;;;;;;;4872967;29;20052;-91
2021/10/13 11:14:05;;;;;;;14.02;3.60;;;;;;;;;;4872955;29;20096;-85
2021/10/13 11:16:36;;;;;;;14.30;3.88;;;;;;;;;;4866327;29;20052;-86
2021/10/13 11:19:12;;;;;;;16.25;3.78;;;;;;;;;;4882003;29;20767;-85
2021/10/13 11:21:40;;;;;;;15.43;3.63;;;;;;;;;;4861857;29;20188;-85
2021/10/13 11:24:07;;;;;;;15.60;3.58;;;;;;;;;;4877113;29;20184;-85
2021/10/13 11:26:40;;;;;;;18.73;4.25;;;;;;;;;;4881687;29;20393;-85
2021/10/13 11:29:27;;;;;;;13.65;3.58;;;;;;;;;;4877964;29;20101;-84
2021/10/13 11:32:05;;;;;;;16.25;4.10;;;;;;;;;;4877548;29;20064;-85
2021/10/13 11:34:31;;;;;;;14.45;3.88;;;;;;;;;;4869487;29;20044;-86
2021/10/13 11:36:59;;;;;;;16.58;3.72;;;;;;;;;;4880557;29;20036;-84
2021/10/13 11:39:29;;;;;;;13.63;3.63;;;;;;;;;;4872242;29;20052;-84
2021/10/13 11:41:57;;;;;;;11.00;3.42;;;;;;;;;;4827247;29;20203;-83
2021/10/13 11:44:26;;;;;;;15.68;4.28;;;;;;;;;;4842532;29;20455;-82
2021/10/13 11:47:07;;;;;;;10.50;2.75;;;;;;;;;;4834194;29;20539;-82
2021/10/13 11:49:55;;;;;;;12.35;3.40;;;;;;;;;;4841957;29;20141;-82
2021/10/13 11:52:24;;;;;;;19.30;5.47;;;;;;;;;;4836210;29;20037;-82
2021/10/13 11:55:11;;;;;;;13.82;3.65;;;;;;;;;;4846037;29;20063;-87
2021/10/13 11:57:41;;;;;;;16.70;3.75;;;;;;;;;;4845854;29;20049;-86
2021/10/13 12:00:15;;;;;;;13.55;2.78;;;;;;;;;;4847647;29;20105;-86
2021/10/13 12:02:57;;;;;;;15.93;5.10;;;;;;;;;;4856330;29;20040;-85
2021/10/13 12:05:35;;;;;;;12.68;3.63;;;;;;;;;;4848337;29;20741;-83
2021/10/13 12:08:04;;;;;;;15.82;3.67;;;;;;;;;;4852874;29;20638;-84
2021/10/13 12:10:54;;;;;;;13.30;3.55;;;;;;;;;;4835181;29;20052;-83
2021/10/13 12:13:29;;;;;;;10.35;2.85;;;;;;;;;;4847351;29;20037;-83
2021/10/13 12:16:01;;;;;;;14.80;4.22;;;;;;;;;;4833097;29;20136;-84
2021/10/13 12:18:45;;;;;;;14.00;2.90;;;;;;;;;;4844940;29;20129;-83
2021/10/13 12:21:15;;;;;;;13.35;2.90;;;;;;;;;;4817630;29;20128;-83
2021/10/13 12:23:50;;;;;;;13.90;2.92;;;;;;;;;;4847178;29;20097;-84
2021/10/13 12:26:19;;;;;;;13.45;2.67;;;;;;;;;;4846413;29;20048;-84
2021/10/13 12:28:48;;;;;;;10.82;2.40;;;;;;;;;;4847043;29;20041;-85
2021/10/13 12:31:28;;;;;;;12.48;2.83;;;;;;;;;;4830552;29;20038;-83
2021/10/13 12:34:09;;;;;;;10.60;2.53;;;;;;;;;;4870488;29;20547;-84
2021/10/13 12:36:39;;;;;;;15.13;3.63;;;;;;;;;;4880611;28;20051;-85
2021/10/13 12:39:17;;;;;;;10.85;2.42;;;;;;;;;;4864774;29;20040;-83
2021/10/13 12:41:46;;;;;;;13.25;2.38;;;;;;;;;;4879279;29;20032;-83
2021/10/13 12:44:25;;;;;;;12.88;2.38;;;;;;;;;;4852684;29;20132;-83
2021/10/13 12:47:11;;;;;;;10.27;2.30;;;;;;;;;;4867358;29;20044;-83
2021/10/13 12:49:47;;;;;;;8.65;2.10;;;;;;;;;;4881921;29;20033;-83
2021/10/13 12:52:27;;;;;;;10.05;2.15;;;;;;;;;;4883440;28;21521;-83
2021/10/13 12:54:58;;;;;;;11.85;3.03;;;;;;;;;;4884920;29;20139;-83
2021/10/13 12:57:28;;;;;;;11.85;2.60;;;;;;;;;;4873369;29;20132;-83
2021/10/13 12:59:57;;;;;;;11.75;2.35;;;;;;;;;;4853067;29;20059;-84
2021/10/13 13:02:27;;;;;;;11.10;2.75;;;;;;;;;;4882085;29;20755;-84
2021/10/13 13:04:56;;;;;;;11.40;2.20;;;;;;;;;;4873642;29;20111;-85
2021/10/13 13:07:24;;;;;;;17.13;2.42;;;;;;;;;;4870922;28;20043;-84
2021/10/13 13:09:51;;;;;;;11.18;2.47;;;;;;;;;;4904502;28;20531;-85
2021/10/13 13:12:20;;;;;;;8.57;1.92;;;;;;;;;;4905784;28;21193;-84
2021/10/13 13:14:52;;;;;;;12.15;2.35;;;;;;;;;;4905293;29;20111;-84
2021/10/13 13:17:24;;;;;;;11.68;2.40;;;;;;;;;;4900977;29;20110;-84
2021/10/13 13:19:52;;;;;;;8.68;2.10;;;;;;;;;;4909860;29;20104;-84
2021/10/13 13:22:20;;;;;;;14.43;2.40;;;;;;;;;;4895834;29;20040;-84
2021/10/13 13:24:48;;;;;;;11.55;2.40;;;;;;;;;;4904781;29;20044;-85
2021/10/13 13:27:15;;;;;;;10.30;2.60;;;;;;;;;;4904236;28;20040;-83
2021/10/13 13:29:42;;;;;;;11.45;2.80;;;;;;;;;;4895018;29;20142;-84
2021/10/13 13:32:09;;;;;;;10.57;1.95;;;;;;;;;;4901836;28;20039;-84
2021/10/13 13:34:38;;;;;;;13.38;2.40;;;;;;;;;;4910769;29;20047;-85
2021/10/13 13:37:10;;;;;;;14.35;2.58;;;;;;;;;;4902823;29;20031;-85
2021/10/13 13:39:37;;;;;;;14.82;2.40;;;;;;;;;;4911328;29;20051;-85
2021/10/13 13:42:11;;;;;;;12.77;2.10;;;;;;;;;;4916173;29;20046;-84
2021/10/13 13:44:37;;;;;;;10.15;2.30;;;;;;;;;;4918087;29;20090;-85
2021/10/13 13:47:05;;;;;;;11.32;2.17;;;;;;;;;;4922001;28;20043;-84
2021/10/13 13:49:32;;;;;;;15.07;2.17;;;;;;;;;;4929279;28;20807;-84
2021/10/13 13:51:58;;;;;;;9.70;2.10;;;;;;;;;;4931260;28;20044;-84
2021/10/13 13:54:26;;;;;;;10.43;2.03;;;;;;;;;;4906582;29;20119;-84
2021/10/13 13:56:55;;;;;;;16.65;2.17;;;;;;;;;;4909171;29;20032;-84
2021/10/13 13:59:24;;;;;;;14.20;2.10;;;;;;;;;;4898454;28;20293;-84
2021/10/13 14:01:53;;;;;;;11.25;2.22;;;;;;;;;;4901344;29;20128;-85
2021/10/13 14:04:23;;;;;;;11.18;2.22;;;;;;;;;;4900046;29;20044;-84
2021/10/13 14:06:51;;;;;;;11.73;2.10;;;;;;;;;;4900701;29;20108;-84
2021/10/13 14:09:19;;;;;;;11.30;2.10;;;;;;;;;;4899861;29;20059;-84
2021/10/13 14:11:49;;;;;;;12.63;2.10;;;;;;;;;;4886548;29;20040;-84
2021/10/13 14:14:20;;;;;;;11.38;2.58;;;;;;;;;;4861623;29;20028;-85
2021/10/13 14:16:54;;;;;;;11.55;2.53;;;;;;;;;;4855525;29;20033;-85
2021/10/13 14:19:21;;;;;;;8.80;1.63;;;;;;;;;;4857909;28;20074;-85
2021/10/13 14:21:51;;;;;;;12.98;2.40;;;;;;;;;;4889646;29;20064;-85
2021/10/13 14:24:19;;;;;;;9.77;2.10;;;;;;;;;;4854855;29;20040;-85
2021/10/13 14:26:50;;;;;;;8.48;1.90;;;;;;;;;;4876829;29;20120;-85
2021/10/13 14:29:21;;;;;;;12.68;2.97;;;;;;;;;;4852905;29;20148;-83
2021/10/13 14:31:48;;;;;;;13.65;2.90;;;;;;;;;;4857010;29;20101;-84
2021/10/13 14:34:15;;;;;;;12.55;3.40;;;;;;;;;;4860965;29;20067;-85
2021/10/13 14:36:44;;;;;;;14.05;3.45;;;;;;;;;;4871125;29;20028;-84
2021/10/13 14:39:13;;;;;;;16.30;3.28;;;;;;;;;;4873711;29;20901;-85
2021/10/13 14:41:42;;;;;;;12.40;2.72;;;;;;;;;;4873167;29;20056;-84
2021/10/13 14:44:10;;;;;;;11.50;2.22;;;;;;;;;;4883953;29;20054;-85
2021/10/13 14:46:42;;;;;;;12.85;2.88;;;;;;;;;;4870198;29;20552;-85
2021/10/13 14:49:10;;;;;;;12.63;2.38;;;;;;;;;;4867308;29;20028;-86
2021/10/13 14:51:50;;;;;;;13.07;2.90;;;;;;;;;;4876439;29;20445;-84
2021/10/13 14:54:26;;;;;;;10.18;3.00;;;;;;;;;;4870436;29;20044;-84
2021/10/13 14:56:58;;;;;;;15.00;3.40;;;;;;;;;;4870941;29;20147;-83
2021/10/13 14:59:31;;;;;;;10.27;2.72;;;;;;;;;;4884768;29;20550;-83